createdAt,value
2018-11-29T00:00:52.553Z,9.40
2018-11-29T00:03:20.305Z,9.40
2018-11-29T00:05:47.891Z,9.40
2018-11-29T00:08:15.553Z,9.50
2018-11-29T00:10:43.431Z,9.40
2018-11-29T00:13:11.209Z,9.40
2018-11-29T00:15:39.194Z,9.50
2018-11-29T00:18:12.961Z,9.50
2018-11-29T00:20:40.841Z,9.50
2018-11-29T00:23:08.528Z,9.50
2018-11-29T00:25:36.261Z,9.50
2018-11-29T00:28:04.693Z,9.50
2018-11-29T00:30:32.372Z,9.50
2018-11-29T00:33:00.027Z,9.50
2018-11-29T00:35:27.681Z,9.50
2018-11-29T00:37:55.335Z,9.50
2018-11-29T00:40:23.676Z,9.50
2018-11-29T00:42:51.566Z,9.60
2018-11-29T00:45:20.317Z,9.60
2018-11-29T00:47:48.485Z,9.50
2018-11-29T00:50:16.920Z,9.60
2018-11-29T00:52:45.468Z,9.60
2018-11-29T00:55:17.124Z,9.60
2018-11-29T00:57:44.952Z,9.70
2018-11-29T01:00:21.650Z,9.60
2018-11-29T01:02:49.468Z,9.60
2018-11-29T01:05:17.137Z,9.60
2018-11-29T01:07:45.169Z,9.60
2018-11-29T01:10:13.866Z,9.60
2018-11-29T01:12:41.583Z,9.60
2018-11-29T01:15:11.853Z,9.60
2018-11-29T01:17:39.916Z,9.60
2018-11-29T01:20:09.102Z,9.60
2018-11-29T01:22:36.848Z,9.60
2018-11-29T01:25:06.361Z,9.70
2018-11-29T01:27:34.711Z,9.60
2018-11-29T01:30:03.097Z,9.70
2018-11-29T01:35:31.314Z,9.70
2018-11-29T01:37:59.854Z,9.70
2018-11-29T01:40:28.293Z,9.70
2018-11-29T01:42:57.245Z,9.70
2018-11-29T01:45:25.907Z,9.70
2018-11-29T01:47:55.579Z,9.70
2018-11-29T01:50:24.762Z,9.70
2018-11-29T01:52:53.464Z,9.70
2018-11-29T01:55:22.641Z,9.70
2018-11-29T01:57:51.127Z,9.70
2018-11-29T02:00:19.672Z,9.70
2018-11-29T02:02:49.895Z,9.70
2018-11-29T02:05:18.418Z,9.70
2018-11-29T02:07:46.790Z,9.70
2018-11-29T02:10:21.375Z,9.70
2018-11-29T02:12:50.005Z,9.70
2018-11-29T02:15:18.362Z,9.80
2018-11-29T02:17:46.562Z,9.70
2018-11-29T02:20:16.529Z,9.70
2018-11-29T02:22:45.105Z,9.80
2018-11-29T02:25:13.707Z,9.70
2018-11-29T02:27:42.523Z,9.70
2018-11-29T02:30:20.012Z,9.70
2018-11-29T02:32:48.942Z,9.80
2018-11-29T02:35:17.423Z,9.80
2018-11-29T02:37:46.070Z,9.80
2018-11-29T02:40:15.366Z,9.80
2018-11-29T02:42:44.190Z,9.80
2018-11-29T02:45:16.456Z,9.80
2018-11-29T02:47:44.783Z,9.80
2018-11-29T02:50:13.548Z,9.80
2018-11-29T02:52:41.923Z,9.80
2018-11-29T02:55:11.211Z,9.80
2018-11-29T02:57:40.041Z,9.80
2018-11-29T03:00:15.817Z,9.80
2018-11-29T03:02:44.725Z,9.80
2018-11-29T03:05:13.543Z,9.80
2018-11-29T03:07:41.750Z,9.80
2018-11-29T03:10:11.481Z,9.80
2018-11-29T03:12:39.707Z,9.80
2018-11-29T03:15:13.597Z,9.80
2018-11-29T03:17:42.138Z,9.80
2018-11-29T03:20:11.559Z,9.80
2018-11-29T03:22:40.074Z,9.80
2018-11-29T03:25:12.372Z,9.90
2018-11-29T03:27:41.409Z,9.90
2018-11-29T03:30:10.850Z,9.90
2018-11-29T03:32:46.056Z,9.90
2018-11-29T03:35:14.711Z,9.90
2018-11-29T03:37:43.139Z,9.90
2018-11-29T03:40:14.995Z,9.90
2018-11-29T03:42:43.692Z,9.90
2018-11-29T03:45:12.883Z,9.90
2018-11-29T03:47:41.134Z,9.90
2018-11-29T03:50:16.758Z,9.90
2018-11-29T03:52:45.356Z,9.90
2018-11-29T03:55:13.729Z,9.90
2018-11-29T03:57:42.265Z,9.90
2018-11-29T04:00:13.547Z,9.90
2018-11-29T04:02:42.223Z,9.90
2018-11-29T04:05:10.834Z,9.90
2018-11-29T04:07:39.041Z,9.90
2018-11-29T04:10:08.989Z,9.90
2018-11-29T04:12:37.436Z,9.90
2018-11-29T04:15:06.840Z,9.90
2018-11-29T04:17:40.556Z,9.90
2018-11-29T04:20:03.689Z,9.90
2018-11-29T04:22:31.916Z,9.90
2018-11-29T04:25:00.211Z,9.90
2018-11-29T04:27:28.775Z,9.90
2018-11-29T04:29:57.141Z,9.90
2018-11-29T04:32:25.334Z,9.90
2018-11-29T04:34:53.921Z,9.90
2018-11-29T04:37:22.628Z,9.90
2018-11-29T04:39:51.193Z,9.90
2018-11-29T04:42:19.570Z,9.90
2018-11-29T04:44:48.000Z,9.90
2018-11-29T04:47:16.442Z,9.90
2018-11-29T04:49:44.811Z,9.90
2018-11-29T04:52:13.379Z,9.90
2018-11-29T04:54:41.986Z,9.90
2018-11-29T04:57:10.311Z,9.90
2018-11-29T04:59:38.729Z,9.90
2018-11-29T05:02:07.097Z,10.00
2018-11-29T05:04:35.596Z,9.90
2018-11-29T05:07:03.781Z,10.00
2018-11-29T05:09:32.111Z,9.90
2018-11-29T05:12:00.354Z,9.90
2018-11-29T05:14:28.693Z,9.90
2018-11-29T05:16:56.808Z,9.90
2018-11-29T05:19:25.130Z,9.90
2018-11-29T05:21:53.551Z,9.90
2018-11-29T05:24:22.174Z,9.90
2018-11-29T05:26:50.568Z,9.90
2018-11-29T05:29:19.061Z,9.90
2018-11-29T05:31:47.402Z,9.90
2018-11-29T05:34:15.671Z,9.90
2018-11-29T05:36:44.149Z,9.90
2018-11-29T05:39:12.673Z,9.90
2018-11-29T05:41:40.930Z,9.90
2018-11-29T05:44:09.174Z,9.90
2018-11-29T05:46:37.472Z,9.90
2018-11-29T05:49:05.894Z,9.90
2018-11-29T05:51:34.322Z,9.90
2018-11-29T05:54:02.433Z,9.90
2018-11-29T05:56:30.672Z,9.90
2018-11-29T05:58:58.894Z,9.90
2018-11-29T06:01:37.495Z,9.90
2018-11-29T06:04:06.862Z,10.00
2018-11-29T06:06:34.926Z,10.00
2018-11-29T06:09:04.919Z,10.00
2018-11-29T06:11:33.074Z,10.00
2018-11-29T06:14:01.520Z,10.00
2018-11-29T06:16:29.881Z,10.00
2018-11-29T06:18:57.953Z,9.90
2018-11-29T06:21:26.398Z,10.00
2018-11-29T06:23:55.350Z,9.90
2018-11-29T06:26:23.568Z,9.90
2018-11-29T06:28:52.105Z,10.00
2018-11-29T06:31:20.610Z,9.90
2018-11-29T06:33:48.975Z,9.90
2018-11-29T06:36:17.123Z,9.90
2018-11-29T06:38:45.832Z,10.00
2018-11-29T06:41:14.544Z,9.90
2018-11-29T06:43:42.825Z,9.90
2018-11-29T06:46:11.333Z,9.90
2018-11-29T06:48:39.644Z,9.90
2018-11-29T06:51:08.343Z,10.00
2018-11-29T06:53:43.454Z,9.90
2018-11-29T06:56:11.755Z,9.90
2018-11-29T06:58:40.957Z,9.90
2018-11-29T07:01:09.391Z,10.00
2018-11-29T07:03:38.230Z,9.90
2018-11-29T07:06:06.873Z,9.90
2018-11-29T07:08:35.304Z,10.00
2018-11-29T07:11:03.466Z,10.00
2018-11-29T07:13:31.746Z,10.00
2018-11-29T07:15:59.855Z,9.90
2018-11-29T07:18:28.549Z,10.00
2018-11-29T07:21:08.641Z,9.90
2018-11-29T07:23:36.623Z,10.00
2018-11-29T07:26:05.758Z,10.00
2018-11-29T07:28:34.287Z,10.00
2018-11-29T07:31:02.562Z,10.00
2018-11-29T07:33:30.517Z,10.00
2018-11-29T07:35:58.530Z,10.00
2018-11-29T07:38:26.616Z,10.00
2018-11-29T07:40:54.962Z,10.00
2018-11-29T07:43:23.071Z,10.00
2018-11-29T07:45:51.285Z,10.00
2018-11-29T07:48:19.740Z,10.00
2018-11-29T07:50:48.160Z,10.00
2018-11-29T07:53:17.280Z,10.00
2018-11-29T07:55:45.326Z,10.00
2018-11-29T07:58:13.336Z,10.00
2018-11-29T08:00:41.581Z,10.00
2018-11-29T08:03:10.190Z,10.00
2018-11-29T08:05:38.402Z,10.00
2018-11-29T08:08:06.641Z,10.00
2018-11-29T08:10:34.740Z,10.00
2018-11-29T08:13:02.767Z,10.00
2018-11-29T08:15:30.675Z,10.10
2018-11-29T08:17:58.654Z,10.00
2018-11-29T08:20:26.749Z,10.10
2018-11-29T08:22:54.979Z,10.10
2018-11-29T08:25:23.167Z,10.10
2018-11-29T08:27:51.476Z,10.10
2018-11-29T08:30:20.372Z,10.10
2018-11-29T08:32:48.499Z,10.10
2018-11-29T08:35:16.711Z,10.10
2018-11-29T08:37:46.116Z,10.10
2018-11-29T08:40:17.141Z,10.10
2018-11-29T08:42:46.470Z,10.10
2018-11-29T08:45:14.815Z,10.10
2018-11-29T08:47:42.954Z,10.10
2018-11-29T08:50:12.212Z,10.10
2018-11-29T08:52:41.020Z,10.10
2018-11-29T08:55:10.214Z,10.10
2018-11-29T08:57:38.357Z,10.10
2018-11-29T09:00:10.806Z,10.10
2018-11-29T09:02:38.983Z,10.10
2018-11-29T09:05:07.816Z,10.10
2018-11-29T09:07:36.568Z,10.10
2018-11-29T09:10:07.695Z,10.20
2018-11-29T09:12:36.495Z,10.10
2018-11-29T09:15:08.038Z,10.20
2018-11-29T09:17:36.059Z,10.20
2018-11-29T09:20:05.815Z,10.20
2018-11-29T09:22:33.796Z,10.20
2018-11-29T09:25:01.806Z,10.20
2018-11-29T09:27:29.856Z,10.20
2018-11-29T09:29:57.939Z,10.20
2018-11-29T09:32:26.049Z,10.20
2018-11-29T09:34:54.840Z,10.20
2018-11-29T09:37:22.746Z,10.20
2018-11-29T09:39:50.774Z,10.20
2018-11-29T09:42:18.672Z,10.20
2018-11-29T09:44:46.916Z,10.20
2018-11-29T09:47:14.894Z,10.30
2018-11-29T09:49:44.237Z,10.20
2018-11-29T09:52:12.336Z,10.30
2018-11-29T09:54:40.258Z,10.20
2018-11-29T09:57:08.314Z,10.20
2018-11-29T09:59:39.429Z,10.20
2018-11-29T10:02:07.409Z,10.20
2018-11-29T10:04:36.299Z,10.20
2018-11-29T10:07:04.371Z,10.20
2018-11-29T10:09:32.293Z,10.20
2018-11-29T10:12:00.581Z,10.20
2018-11-29T10:14:28.826Z,10.20
2018-11-29T10:16:56.873Z,10.20
2018-11-29T10:19:25.142Z,10.30
2018-11-29T10:21:53.484Z,10.30
2018-11-29T10:24:21.452Z,10.30
2018-11-29T10:26:49.697Z,10.20
2018-11-29T10:29:17.739Z,10.30
2018-11-29T10:31:45.778Z,10.30
2018-11-29T10:34:13.852Z,10.30
2018-11-29T10:36:41.937Z,10.30
2018-11-29T10:39:09.888Z,10.30
2018-11-29T10:41:37.833Z,10.20
2018-11-29T10:44:06.070Z,10.20
2018-11-29T10:46:34.326Z,10.30
2018-11-29T10:49:06.120Z,10.30
2018-11-29T10:51:34.322Z,10.30
2018-11-29T10:54:02.635Z,10.30
2018-11-29T10:56:30.598Z,10.30
2018-11-29T10:58:58.897Z,10.30
2018-11-29T11:01:31.712Z,10.30
2018-11-29T11:04:00.397Z,10.20
2018-11-29T11:06:28.444Z,10.30
2018-11-29T11:08:56.486Z,10.20
2018-11-29T11:11:26.519Z,10.30
2018-11-29T11:13:54.633Z,10.30
2018-11-29T11:16:22.667Z,10.30
2018-11-29T11:18:51.956Z,10.30
2018-11-29T11:21:20.016Z,10.20
2018-11-29T11:23:48.007Z,10.20
2018-11-29T11:26:16.305Z,10.20
2018-11-29T11:28:44.424Z,10.20
2018-11-29T11:31:12.437Z,10.30
2018-11-29T11:33:40.576Z,10.30
2018-11-29T11:36:08.731Z,10.30
2018-11-29T11:38:36.943Z,10.30
2018-11-29T11:41:05.360Z,10.30
2018-11-29T11:43:33.591Z,10.20
2018-11-29T11:46:01.848Z,10.20
2018-11-29T11:48:29.899Z,10.20
2018-11-29T11:50:58.071Z,10.20
2018-11-29T11:53:26.492Z,10.20
2018-11-29T11:55:54.550Z,10.20
2018-11-29T11:58:22.301Z,10.20
2018-11-29T12:00:50.035Z,10.20
2018-11-29T12:03:17.772Z,10.20
2018-11-29T12:05:45.388Z,10.20
2018-11-29T12:08:13.041Z,10.20
2018-11-29T12:10:41.934Z,10.20
2018-11-29T12:13:09.601Z,10.20
2018-11-29T12:15:37.717Z,10.20
2018-11-29T12:18:07.851Z,10.20
2018-11-29T12:20:36.646Z,10.20
2018-11-29T12:23:04.726Z,10.20
2018-11-29T12:25:32.365Z,10.20
2018-11-29T12:28:00.117Z,10.20
2018-11-29T12:30:30.314Z,10.20
2018-11-29T12:33:00.338Z,10.20
2018-11-29T12:35:28.111Z,10.20
2018-11-29T12:37:55.728Z,10.20
2018-11-29T12:40:23.440Z,10.30
2018-11-29T12:42:52.885Z,10.20
2018-11-29T12:45:20.535Z,10.30
2018-11-29T12:47:48.538Z,10.20
2018-11-29T12:50:23.965Z,10.30
2018-11-29T12:52:51.906Z,10.30
2018-11-29T12:55:20.432Z,10.30
2018-11-29T12:57:56.503Z,10.30
2018-11-29T13:00:17.675Z,10.30
2018-11-29T13:02:49.659Z,10.30
2018-11-29T13:05:17.357Z,10.30
2018-11-29T13:07:45.355Z,10.30
2018-11-29T13:10:18.371Z,10.30
2018-11-29T13:12:47.010Z,10.30
2018-11-29T13:15:18.260Z,10.30
2018-11-29T13:17:46.093Z,10.10
2018-11-29T13:20:14.577Z,10.30
2018-11-29T13:22:42.370Z,10.30
2018-11-29T13:25:16.113Z,10.30
2018-11-29T13:27:45.070Z,10.30
2018-11-29T13:30:14.932Z,10.30
2018-11-29T13:32:43.060Z,10.30
2018-11-29T13:35:15.601Z,10.30
2018-11-29T13:37:46.242Z,10.30
2018-11-29T13:40:13.926Z,10.30
2018-11-29T13:42:41.781Z,10.30
2018-11-29T13:45:10.298Z,10.30
2018-11-29T13:47:38.916Z,10.30
2018-11-29T13:50:09.633Z,10.30
2018-11-29T13:52:37.286Z,10.30
2018-11-29T13:55:06.076Z,10.30
2018-11-29T13:57:33.885Z,10.30
2018-11-29T14:00:01.739Z,10.40
2018-11-29T14:02:29.349Z,10.40
2018-11-29T14:04:57.401Z,10.30
2018-11-29T14:07:24.913Z,10.40
2018-11-29T14:09:52.848Z,10.30
2018-11-29T14:12:20.680Z,10.40
2018-11-29T14:14:48.499Z,10.40
2018-11-29T14:17:16.509Z,10.40
2018-11-29T14:19:44.465Z,10.40
2018-11-29T14:22:13.363Z,10.40
2018-11-29T14:24:41.293Z,10.40
2018-11-29T14:27:08.998Z,10.40
2018-11-29T14:29:36.747Z,10.40
2018-11-29T14:32:05.507Z,10.00
2018-11-29T14:34:33.189Z,10.40
2018-11-29T14:37:00.873Z,10.40
2018-11-29T14:39:28.419Z,10.40
2018-11-29T14:41:56.235Z,10.40
2018-11-29T14:44:23.934Z,10.40
2018-11-29T14:46:51.788Z,10.40
2018-11-29T14:49:19.761Z,10.40
2018-11-29T14:51:48.167Z,10.40
2018-11-29T14:54:16.106Z,10.40
2018-11-29T14:56:43.848Z,10.40
2018-11-29T14:59:11.608Z,10.40
2018-11-29T15:01:39.434Z,10.40
2018-11-29T15:04:07.205Z,10.40
2018-11-29T15:06:35.057Z,10.40
2018-11-29T15:09:03.956Z,10.50
2018-11-29T15:11:31.734Z,10.40
2018-11-29T15:13:59.418Z,10.40
2018-11-29T15:16:27.125Z,10.50
2018-11-29T15:18:55.771Z,10.50
2018-11-29T15:21:23.466Z,10.50
2018-11-29T15:23:51.389Z,10.50
2018-11-29T15:26:19.228Z,10.50
2018-11-29T15:28:46.797Z,10.50
2018-11-29T15:31:14.823Z,10.50
2018-11-29T15:33:42.545Z,10.50
2018-11-29T15:36:10.260Z,10.50
2018-11-29T15:38:38.155Z,10.50
2018-11-29T15:41:05.979Z,10.50
2018-11-29T15:43:33.837Z,10.50
2018-11-29T15:46:02.698Z,10.50
2018-11-29T15:48:30.382Z,10.50
2018-11-29T15:50:58.256Z,10.50
2018-11-29T15:53:26.218Z,10.50
2018-11-29T15:55:54.113Z,10.50
2018-11-29T15:58:21.844Z,10.50
2018-11-29T16:00:49.711Z,10.50
2018-11-29T16:03:18.111Z,10.50
2018-11-29T16:05:45.942Z,10.40
2018-11-29T16:08:13.565Z,10.50
2018-11-29T16:10:40.992Z,10.50
2018-11-29T16:13:08.811Z,10.60
2018-11-29T16:15:36.968Z,10.40
2018-11-29T16:18:05.086Z,10.50
2018-11-29T16:20:34.428Z,10.50
2018-11-29T16:23:02.255Z,10.50
2018-11-29T16:25:30.106Z,10.50
2018-11-29T16:27:57.847Z,10.40
2018-11-29T16:30:33.630Z,10.40
2018-11-29T16:33:04.985Z,10.50
2018-11-29T16:35:33.465Z,10.50
2018-11-29T16:38:01.047Z,10.50
2018-11-29T16:40:28.887Z,10.50
2018-11-29T16:42:56.559Z,10.50
2018-11-29T16:45:24.240Z,10.50
2018-11-29T16:47:51.994Z,10.50
2018-11-29T16:50:19.591Z,10.50
2018-11-29T16:52:47.252Z,10.50
2018-11-29T16:55:14.978Z,10.50
2018-11-29T16:57:45.833Z,10.50
2018-11-29T17:00:15.001Z,10.50
2018-11-29T17:02:42.723Z,10.50
2018-11-29T17:05:12.718Z,10.50
2018-11-29T17:07:40.513Z,10.50
2018-11-29T17:10:09.746Z,10.50
2018-11-29T17:12:37.438Z,10.50
2018-11-29T17:15:07.852Z,10.50
2018-11-29T17:17:35.683Z,10.50
2018-11-29T17:20:04.613Z,10.50
2018-11-29T17:22:32.416Z,10.50
2018-11-29T17:25:00.146Z,10.50
2018-11-29T17:27:28.021Z,10.50
2018-11-29T17:29:55.797Z,10.50
2018-11-29T17:32:23.527Z,10.50
2018-11-29T17:34:51.436Z,10.50
2018-11-29T17:37:19.316Z,10.50
2018-11-29T17:39:47.089Z,10.50
2018-11-29T17:42:14.884Z,10.50
2018-11-29T17:44:42.746Z,10.50
2018-11-29T17:47:10.370Z,10.50
2018-11-29T17:49:38.201Z,10.50
2018-11-29T17:52:06.001Z,10.50
2018-11-29T17:54:34.811Z,10.50
2018-11-29T17:57:02.846Z,10.50
2018-11-29T17:59:30.616Z,10.50
2018-11-29T18:01:58.404Z,10.50
2018-11-29T18:04:26.193Z,10.50
2018-11-29T18:06:53.989Z,10.50
2018-11-29T18:09:21.663Z,10.50
2018-11-29T18:11:49.396Z,10.50
2018-11-29T18:14:17.119Z,10.50
2018-11-29T18:16:44.714Z,10.50
2018-11-29T18:19:13.298Z,10.50
2018-11-29T18:21:41.678Z,10.50
2018-11-29T18:24:09.498Z,10.50
2018-11-29T18:26:38.325Z,10.50
2018-11-29T18:29:06.212Z,10.50
2018-11-29T18:31:34.057Z,10.50
2018-11-29T18:34:02.032Z,10.50
2018-11-29T18:36:29.776Z,10.60
2018-11-29T18:38:57.635Z,10.60
2018-11-29T18:41:25.294Z,10.60
2018-11-29T18:43:52.902Z,10.60
2018-11-29T18:46:20.486Z,10.60
2018-11-29T18:48:48.138Z,10.60
2018-11-29T18:51:15.818Z,10.60
2018-11-29T18:53:43.713Z,10.60
2018-11-29T18:56:11.559Z,10.50
2018-11-29T18:58:39.276Z,10.60
2018-11-29T19:01:07.269Z,10.60
2018-11-29T19:03:35.166Z,10.60
2018-11-29T19:06:03.169Z,10.60
2018-11-29T19:08:30.994Z,10.60
2018-11-29T19:10:58.676Z,10.60
2018-11-29T19:13:26.315Z,10.60
2018-11-29T19:15:54.340Z,10.60
2018-11-29T19:18:22.150Z,10.60
2018-11-29T19:20:49.830Z,10.60
2018-11-29T19:23:17.763Z,10.60
2018-11-29T19:25:45.703Z,10.60
2018-11-29T19:28:13.371Z,10.60
2018-11-29T19:30:40.935Z,10.60
2018-11-29T19:33:17.964Z,10.60
2018-11-29T19:35:50.406Z,10.60
2018-11-29T19:38:18.189Z,10.60
2018-11-29T19:40:46.329Z,10.60
2018-11-29T19:43:14.139Z,10.60
2018-11-29T19:45:41.847Z,10.60
2018-11-29T19:48:09.850Z,10.70
2018-11-29T19:50:37.539Z,10.70
2018-11-29T19:53:10.402Z,10.70
2018-11-29T19:55:38.158Z,10.70
2018-11-29T19:58:06.170Z,10.60
2018-11-29T20:00:34.104Z,10.70
2018-11-29T20:03:01.573Z,10.70
2018-11-29T20:05:29.231Z,10.70
2018-11-29T20:07:56.972Z,10.70
2018-11-29T20:10:24.804Z,10.70
2018-11-29T20:13:00.101Z,10.70
2018-11-29T20:15:27.893Z,10.70
2018-11-29T20:17:55.714Z,10.70
2018-11-29T20:20:23.445Z,10.70
2018-11-29T20:22:51.269Z,10.60
2018-11-29T20:25:20.465Z,10.60
2018-11-29T20:27:48.347Z,10.30
2018-11-29T20:30:18.237Z,10.60
2018-11-29T20:32:46.831Z,10.70
2018-11-29T20:35:16.412Z,10.70
2018-11-29T20:37:44.217Z,10.70
2018-11-29T20:40:16.210Z,10.70
2018-11-29T20:42:45.169Z,10.70
2018-11-29T20:45:17.177Z,10.70
2018-11-29T20:47:44.937Z,10.70
2018-11-29T20:50:14.799Z,10.70
2018-11-29T20:52:42.297Z,10.70
2018-11-29T20:55:28.264Z,10.70
2018-11-29T20:57:56.197Z,10.70
2018-11-29T21:00:23.890Z,10.70
2018-11-29T21:02:51.604Z,10.70
2018-11-29T21:05:20.379Z,10.70
2018-11-29T21:07:50.372Z,10.70
2018-11-29T21:10:25.555Z,10.70
2018-11-29T21:12:53.292Z,10.70
2018-11-29T21:15:21.397Z,10.70
2018-11-29T21:17:49.278Z,10.70
2018-11-29T21:20:20.086Z,10.70
2018-11-29T21:22:49.129Z,10.70
2018-11-29T21:25:18.067Z,10.70
2018-11-29T21:27:45.892Z,10.70
2018-11-29T21:30:14.732Z,10.70
2018-11-29T21:32:42.534Z,10.70
2018-11-29T21:35:11.737Z,10.70
2018-11-29T21:37:39.642Z,10.70
2018-11-29T21:40:11.308Z,10.70
2018-11-29T21:42:39.299Z,10.70
2018-11-29T21:45:07.061Z,10.70
2018-11-29T21:47:35.029Z,10.70
2018-11-29T21:50:02.754Z,10.70
2018-11-29T21:52:30.416Z,10.70
2018-11-29T21:54:58.030Z,10.70
2018-11-29T21:57:25.718Z,10.70
2018-11-29T21:59:53.726Z,10.70
2018-11-29T22:02:21.285Z,10.70
2018-11-29T22:04:48.924Z,10.70
2018-11-29T22:07:16.709Z,10.70
2018-11-29T22:09:44.538Z,10.70
2018-11-29T22:12:12.322Z,10.70
2018-11-29T22:14:40.020Z,10.70
2018-11-29T22:17:07.663Z,10.70
2018-11-29T22:19:35.539Z,10.70
2018-11-29T22:22:03.588Z,10.70
2018-11-29T22:24:31.628Z,10.70
2018-11-29T22:26:59.317Z,10.70
2018-11-29T22:29:27.233Z,10.70
2018-11-29T22:31:55.097Z,10.70
2018-11-29T22:34:22.836Z,10.70
2018-11-29T22:36:50.771Z,10.70
2018-11-29T22:39:18.480Z,10.70
2018-11-29T22:41:46.168Z,10.70
2018-11-29T22:44:13.983Z,10.70
2018-11-29T22:46:41.693Z,10.70
2018-11-29T22:49:09.436Z,10.80
2018-11-29T22:51:37.182Z,10.70
2018-11-29T22:54:05.688Z,10.80
2018-11-29T22:56:33.305Z,10.70
2018-11-29T22:59:00.915Z,10.80
2018-11-29T23:01:28.527Z,10.70
2018-11-29T23:03:56.229Z,10.80
2018-11-29T23:06:24.084Z,10.80
2018-11-29T23:08:52.045Z,10.80
2018-11-29T23:11:20.055Z,10.80
2018-11-29T23:13:47.669Z,10.80
2018-11-29T23:16:15.491Z,10.80
2018-11-29T23:18:43.068Z,10.80
2018-11-29T23:21:10.761Z,10.80
2018-11-29T23:23:38.699Z,10.80
2018-11-29T23:26:06.706Z,10.80
2018-11-29T23:28:34.329Z,10.80
2018-11-29T23:31:02.162Z,10.80
2018-11-29T23:33:29.808Z,10.80
2018-11-29T23:35:57.577Z,10.80
2018-11-29T23:38:25.253Z,10.80
2018-11-29T23:40:52.949Z,10.80
2018-11-29T23:43:20.612Z,10.80
2018-11-29T23:45:48.267Z,10.90
2018-11-29T23:48:15.958Z,10.80
2018-11-29T23:50:43.584Z,10.80
2018-11-29T23:53:11.214Z,10.90
2018-11-29T23:55:38.973Z,10.90
2018-11-29T23:58:06.679Z,10.90
